Detall de PIREP

Printer-friendly versionPDF version

[2016/08/13 16:29:00]
Flight IATA:CT1004
Pilot Number:012
Company ICAO:CAT
Aircraft Type:DC3/A
PAX:19
Aircraft Registration:PAX
Departing Airport: LFKJ
Destination Airport: LIEA
Alternate Airport:LIEO
Online: VATSIM
Route:VFR
Flight Level:A3000
No Slew and time accel
No pause
Crash detect
Detect pilot in Cockpit between each 30 and 45 minutes
16:29 Zero fuel Weight: 19823 Lbs, Fuel Weight: 1450 Lbs
16:29 VATSIM:LFKJ 131600Z 20010KT 9999 FEW060 27/20 Q1022 NOSIG
16:29 VATSIM:LIEA 131620Z 03016KT CAVOK 27/13 Q1022
16:29 SUMMER CHARTER
16:30 Parking Brakes off
16:34 Take-off
16:34 Take off Weight: 21250 Lbs
16:34 Wind: 198º @ 010 Knots Heading: 207º
16:34 POS N41º 55´ 06´´ E008º 47´ 55´´
16:34 Gear Up: 118 Knots
16:49 Wind:198º@008 Knots Heading: 090º Ground Speed: 157 Knots Altitude 3005 ft
17:04 Wind:199º@006 Knots Heading: 208º Ground Speed: 151 Knots Altitude 2995 ft
17:19 Wind:202º@006 Knots Heading: 258º Ground Speed: 154 Knots Altitude 2988 ft
17:30 Flaps:1 at 128 Knots
17:31 Gear Down: 106 Knots
17:31 Flaps:2 at 106 Knots
17:32 Flaps:3 at 104 Knots
17:32 Flaps:4 at 103 Knots
17:33 TouchDown:Rate -169 ft/min Speed: 69 Knots
17:34 Wind:028º@016 Knots Heading: 020º Ground Speed: 032 Knots Altitude 091 ft
17:34 VATSIM:LIEA 131720Z 02012KT CAVOK 26/15 Q1022
17:34 Land
17:34 Wind:028º@015 Knots
17:34 Heading: 028º
17:34 Flight Duration: 01:00
17:34 Landing Weight: 20608 Lbs
17:34 POS N40º 37´ 37´´ E008º 17´ 16´´
17:38 Parking brakes on
17:38 Block to Block Duration: 01:08
17:38 Final Fuel: 767 Lbls
17:38 Spent Fuel: 683 Lbls
17:38 Flight Length: 144 NM
17:38 TOD Land Length: 144 NM

Exportar CSV

Powered by Drupal - Modified by Danger4k